Airfield :
LOGIN :

Register | Disclaimer

   EN    FR    IT 

 










Legend :    VFR   Marginal VFR   IFR   Intensive IFR   Very Intensive IFR
Visi :
Ceiling :
>= 8 km
>= 3000ft
5 to 8 km
1000 to 3000 ft
1500m to 5 km
500 to 1000 ft
800 to 1500m
200 to 500 ft
< 800m
< 200 ft
Symbols :   Thunderstorms  Fog  Heavy snow  Heavy precipitations  Wind > 20 kt
SIGMETs :     Misc.  Thunderstorms  Icing  Turbulence  Mountain Waves  Volcanic Ashes






- Airport Elevation : 390 ft
- IATA code : NQY


EGHQ - Newquay

CURRENT METAR :
  • 121250Z 29025KT 9999 VCSH SCT015 10/08 Q0985 REDZ

EXPIRED METARs :
  • 121220Z 29028KT 9999 7000W VCSH SCT016 SCT049 10/08 Q0985
  • 121150Z 29024KT 9999 VCSH SCT010 SCT024 10/08 Q0985 REDZ
  • 121120Z 28022KT 9999 VCSH SCT011 BKN036 10/08 Q0985
  • 121050Z 26019KT 9999 VCSH SCT007 SCT014 10/09 Q0985
  • 121020Z 24015KT 8000 VCSH BKN005 10/09 Q0985

TAF AMD TAF EGHQ
Valid from the 12 at 12:00 until the 12 at 21:00 UTC


121231Z 1212/1221 28022KT 9999 FEW008 SCT025
TEMPO 1212/1218 27025G35KT 6000 SHRA BKN008
PROB30
TEMPO 1212/1221 3000 +SHRA SHGS BKN004 BKN012CB
BECMG 1218/1221 28025G42KT
TEMPO 1218/1221 6000 SHRA BKN009



MET'MAP, your aeronautical weather chart ! - Copyright ORBIFLY December 2007 - Disclaimer

ORBIFLY MET'MAP TEAM :

Programming & Development : Alexandra Zaïnal
Concept & original design : Baudouin d'Aumeries
Assistance for programming : Marc-Olivier Méhu
Technical & hardware support : Manuel Goepfert

Contact : metmap@orbifly.com




SOURCES & CREDITS :

   NOAA